sensor_id;sensor_type;location;lat;lon;timestamp;pressure;altitude;pressure_sealevel;temperature;humidity
41945;BME280;63122;52.424;13.458;2023-02-22T00:01:07;101104.19;;;8.05;100.00
41945;BME280;63122;52.424;13.458;2023-02-22T00:03:13;101104.41;;;8.13;100.00
41945;BME280;63122;52.424;13.458;2023-02-22T00:05:09;101102.97;;;8.09;100.00
41945;BME280;63122;52.424;13.458;2023-02-22T00:07:07;101107.44;;;7.97;100.00
41945;BME280;63122;52.424;13.458;2023-02-22T00:09:03;101091.63;;;8.09;100.00
41945;BME280;63122;52.424;13.458;2023-02-22T00:11:02;101090.19;;;8.16;100.00
41945;BME280;63122;52.424;13.458;2023-02-22T00:12:59;101091.59;;;8.20;100.00
41945;BME280;63122;52.424;13.458;2023-02-22T00:14:57;101093.13;;;8.23;100.00
41945;BME280;63122;52.424;13.458;2023-02-22T00:16:52;101100.19;;;8.22;100.00
41945;BME280;63122;52.424;13.458;2023-02-22T00:18:51;101099.47;;;8.20;100.00
41945;BME280;63122;52.424;13.458;2023-02-22T00:20:47;101089.56;;;8.24;100.00
41945;BME280;63122;52.424;13.458;2023-02-22T00:22:43;101091.22;;;8.25;100.00
41945;BME280;63122;52.424;13.458;2023-02-22T00:24:40;101084.91;;;8.16;100.00
41945;BME280;63122;52.424;13.458;2023-02-22T00:26:35;101083.88;;;8.07;100.00
41945;BME280;63122;52.424;13.458;2023-02-22T00:28:31;101090.22;;;8.04;100.00
41945;BME280;63122;52.424;13.458;2023-02-22T00:30:29;101088.56;;;8.03;100.00
41945;BME280;63122;52.424;13.458;2023-02-22T00:32:25;101081.84;;;8.11;100.00
41945;BME280;63122;52.424;13.458;2023-02-22T00:34:21;101088.25;;;8.18;100.00
41945;BME280;63122;52.424;13.458;2023-02-22T00:36:17;101090.50;;;8.23;100.00
41945;BME280;63122;52.424;13.458;2023-02-22T00:38:14;101088.59;;;8.25;100.00
41945;BME280;63122;52.424;13.458;2023-02-22T00:40:11;101089.09;;;8.18;100.00
41945;BME280;63122;52.424;13.458;2023-02-22T00:42:06;101091.03;;;8.05;100.00
41945;BME280;63122;52.424;13.458;2023-02-22T00:44:01;101097.75;;;7.98;100.00
41945;BME280;63122;52.424;13.458;2023-02-22T00:45:59;101093.25;;;7.88;100.00
41945;BME280;63122;52.424;13.458;2023-02-22T00:47:56;101090.06;;;7.73;100.00
41945;BME280;63122;52.424;13.458;2023-02-22T00:49:51;101091.50;;;7.66;100.00
41945;BME280;63122;52.424;13.458;2023-02-22T00:51:46;101092.84;;;7.49;100.00
41945;BME280;63122;52.424;13.458;2023-02-22T00:53:41;101088.91;;;7.43;100.00
41945;BME280;63122;52.424;13.458;2023-02-22T00:55:37;101092.13;;;7.47;100.00
41945;BME280;63122;52.424;13.458;2023-02-22T00:57:32;101096.28;;;7.61;100.00
41945;BME280;63122;52.424;13.458;2023-02-22T00:59:28;101094.22;;;7.76;100.00
41945;BME280;63122;52.424;13.458;2023-02-22T01:01:26;101095.03;;;7.88;100.00
41945;BME280;63122;52.424;13.458;2023-02-22T01:03:21;101099.94;;;7.92;100.00
41945;BME280;63122;52.424;13.458;2023-02-22T01:05:19;101097.31;;;7.92;100.00
41945;BME280;63122;52.424;13.458;2023-02-22T01:07:14;101095.75;;;7.90;100.00
41945;BME280;63122;52.424;13.458;2023-02-22T01:09:09;101095.91;;;7.77;100.00
41945;BME280;63122;52.424;13.458;2023-02-22T01:11:05;101093.91;;;7.69;100.00
41945;BME280;63122;52.424;13.458;2023-02-22T01:13:01;101099.03;;;7.59;100.00
41945;BME280;63122;52.424;13.458;2023-02-22T01:15:01;101096.66;;;7.56;100.00
41945;BME280;63122;52.424;13.458;2023-02-22T01:16:58;101099.75;;;7.50;100.00
41945;BME280;63122;52.424;13.458;2023-02-22T01:18:54;101094.75;;;7.47;100.00
41945;BME280;63122;52.424;13.458;2023-02-22T01:20:49;101092.94;;;7.59;100.00
41945;BME280;63122;52.424;13.458;2023-02-22T01:22:46;101088.50;;;7.71;100.00
41945;BME280;63122;52.424;13.458;2023-02-22T01:24:41;101088.00;;;7.77;100.00
41945;BME280;63122;52.424;13.458;2023-02-22T01:26:36;101091.00;;;7.84;100.00
41945;BME280;63122;52.424;13.458;2023-02-22T01:28:31;101084.53;;;7.88;100.00
41945;BME280;63122;52.424;13.458;2023-02-22T01:30:29;101086.59;;;7.84;100.00
41945;BME280;63122;52.424;13.458;2023-02-22T01:32:27;101088.50;;;7.82;100.00
41945;BME280;63122;52.424;13.458;2023-02-22T01:34:24;101088.13;;;7.87;100.00
41945;BME280;63122;52.424;13.458;2023-02-22T01:36:19;101079.88;;;7.91;100.00
41945;BME280;63122;52.424;13.458;2023-02-22T01:38:14;101090.50;;;7.90;100.00
41945;BME280;63122;52.424;13.458;2023-02-22T01:40:17;101087.03;;;7.89;100.00
41945;BME280;63122;52.424;13.458;2023-02-22T01:42:12;101082.50;;;7.80;100.00
41945;BME280;63122;52.424;13.458;2023-02-22T01:44:18;101088.66;;;7.69;100.00
41945;BME280;63122;52.424;13.458;2023-02-22T01:46:20;101083.28;;;7.48;100.00
41945;BME280;63122;52.424;13.458;2023-02-22T01:48:22;101082.84;;;7.31;100.00
41945;BME280;63122;52.424;13.458;2023-02-22T01:50:18;101082.94;;;7.30;100.00
41945;BME280;63122;52.424;13.458;2023-02-22T01:52:16;101085.00;;;7.26;100.00
41945;BME280;63122;52.424;13.458;2023-02-22T01:54:19;101080.66;;;7.25;100.00
41945;BME280;63122;52.424;13.458;2023-02-22T01:56:17;101076.88;;;7.18;100.00
41945;BME280;63122;52.424;13.458;2023-02-22T01:58:14;101078.44;;;7.20;100.00
41945;BME280;63122;52.424;13.458;2023-02-22T02:00:13;101077.47;;;7.22;100.00
41945;BME280;63122;52.424;13.458;2023-02-22T02:02:12;101075.91;;;7.19;100.00
41945;BME280;63122;52.424;13.458;2023-02-22T02:04:12;101077.47;;;7.22;100.00
41945;BME280;63122;52.424;13.458;2023-02-22T02:06:11;101070.41;;;7.22;100.00
41945;BME280;63122;52.424;13.458;2023-02-22T02:08:15;101074.50;;;7.26;100.00
41945;BME280;63122;52.424;13.458;2023-02-22T02:10:13;101070.91;;;7.27;100.00
41945;BME280;63122;52.424;13.458;2023-02-22T02:12:11;101073.31;;;7.30;100.00
41945;BME280;63122;52.424;13.458;2023-02-22T02:14:09;101073.88;;;7.34;100.00
41945;BME280;63122;52.424;13.458;2023-02-22T02:16:05;101076.63;;;7.44;100.00
41945;BME280;63122;52.424;13.458;2023-02-22T02:18:03;101077.22;;;7.47;100.00
41945;BME280;63122;52.424;13.458;2023-02-22T02:20:06;101074.34;;;7.51;100.00
41945;BME280;63122;52.424;13.458;2023-02-22T02:22:35;101066.97;;;7.44;100.00
41945;BME280;63122;52.424;13.458;2023-02-22T02:25:00;101067.19;;;7.30;100.00
41945;BME280;63122;52.424;13.458;2023-02-22T02:27:16;101072.22;;;7.22;100.00
41945;BME280;63122;52.424;13.458;2023-02-22T02:29:28;101067.81;;;7.33;100.00
41945;BME280;63122;52.424;13.458;2023-02-22T02:34:13;101074.50;;;7.26;100.00
41945;BME280;63122;52.424;13.458;2023-02-22T02:36:15;101072.47;;;7.18;100.00
41945;BME280;63122;52.424;13.458;2023-02-22T02:38:20;101071.72;;;7.05;100.00
41945;BME280;63122;52.424;13.458;2023-02-22T02:40:21;101073.41;;;6.95;100.00
41945;BME280;63122;52.424;13.458;2023-02-22T02:42:22;101069.94;;;6.94;100.00
41945;BME280;63122;52.424;13.458;2023-02-22T02:44:25;101071.16;;;7.01;100.00
41945;BME280;63122;52.424;13.458;2023-02-22T02:46:25;101061.59;;;7.12;100.00
41945;BME280;63122;52.424;13.458;2023-02-22T02:48:25;101065.53;;;7.06;100.00
41945;BME280;63122;52.424;13.458;2023-02-22T02:50:26;101063.03;;;7.04;100.00
41945;BME280;63122;52.424;13.458;2023-02-22T02:52:24;101064.47;;;7.09;100.00
41945;BME280;63122;52.424;13.458;2023-02-22T02:54:22;101059.22;;;7.09;100.00
41945;BME280;63122;52.424;13.458;2023-02-22T02:56:18;101072.44;;;7.07;100.00
41945;BME280;63122;52.424;13.458;2023-02-22T02:58:18;101072.69;;;7.04;100.00
41945;BME280;63122;52.424;13.458;2023-02-22T03:00:17;101063.00;;;6.93;100.00
41945;BME280;63122;52.424;13.458;2023-02-22T03:02:34;101065.88;;;6.90;100.00
41945;BME280;63122;52.424;13.458;2023-02-22T03:04:44;101062.53;;;6.88;100.00
41945;BME280;63122;52.424;13.458;2023-02-22T03:07:09;101059.34;;;6.96;100.00
41945;BME280;63122;52.424;13.458;2023-02-22T03:09:34;101061.34;;;6.92;100.00
41945;BME280;63122;52.424;13.458;2023-02-22T03:11:39;101062.44;;;6.89;100.00
41945;BME280;63122;52.424;13.458;2023-02-22T03:13:49;101063.97;;;6.92;100.00
41945;BME280;63122;52.424;13.458;2023-02-22T03:15:54;101063.97;;;6.92;100.00
41945;BME280;63122;52.424;13.458;2023-02-22T03:18:05;101064.81;;;7.04;100.00
41945;BME280;63122;52.424;13.458;2023-02-22T03:20:08;101062.09;;;7.05;100.00
41945;BME280;63122;52.424;13.458;2023-02-22T03:22:15;101057.31;;;6.99;100.00
41945;BME280;63122;52.424;13.458;2023-02-22T03:24:17;101063.97;;;6.92;100.00
41945;BME280;63122;52.424;13.458;2023-02-22T03:26:33;101058.47;;;6.84;100.00
41945;BME280;63122;52.424;13.458;2023-02-22T03:28:33;101055.84;;;6.72;100.00
41945;BME280;63122;52.424;13.458;2023-02-22T03:30:34;101054.78;;;6.75;100.00
41945;BME280;63122;52.424;13.458;2023-02-22T03:32:36;101053.81;;;6.76;100.00
41945;BME280;63122;52.424;13.458;2023-02-22T03:34:34;101047.75;;;6.75;100.00
41945;BME280;63122;52.424;13.458;2023-02-22T03:36:34;101049.66;;;6.73;100.00
41945;BME280;63122;52.424;13.458;2023-02-22T03:38:35;101058.47;;;6.72;100.00
41945;BME280;63122;52.424;13.458;2023-02-22T03:40:35;101050.97;;;6.68;100.00
41945;BME280;63122;52.424;13.458;2023-02-22T03:42:34;101056.44;;;6.65;100.00
41945;BME280;63122;52.424;13.458;2023-02-22T03:44:34;101059.88;;;6.65;100.00
41945;BME280;63122;52.424;13.458;2023-02-22T03:46:31;101061.31;;;6.69;100.00
41945;BME280;63122;52.424;13.458;2023-02-22T03:48:36;101060.09;;;6.51;100.00
41945;BME280;63122;52.424;13.458;2023-02-22T03:50:35;101060.19;;;6.49;100.00
41945;BME280;63122;52.424;13.458;2023-02-22T03:52:31;101054.16;;;6.60;100.00
41945;BME280;63122;52.424;13.458;2023-02-22T03:54:29;101058.81;;;6.68;100.00
41945;BME280;63122;52.424;13.458;2023-02-22T03:56:29;101059.78;;;6.67;100.00
41945;BME280;63122;52.424;13.458;2023-02-22T03:58:30;101055.81;;;6.50;100.00
41945;BME280;63122;52.424;13.458;2023-02-22T04:00:28;101062.09;;;6.47;100.00
41945;BME280;63122;52.424;13.458;2023-02-22T04:02:24;101059.16;;;6.52;100.00
41945;BME280;63122;52.424;13.458;2023-02-22T04:04:19;101053.66;;;6.55;100.00
41945;BME280;63122;52.424;13.458;2023-02-22T04:06:15;101049.03;;;6.58;100.00
41945;BME280;63122;52.424;13.458;2023-02-22T04:08:10;101057.03;;;6.68;100.00
41945;BME280;63122;52.424;13.458;2023-02-22T04:10:08;101057.63;;;6.72;100.00
41945;BME280;63122;52.424;13.458;2023-02-22T04:12:04;101060.16;;;6.73;100.00
41945;BME280;63122;52.424;13.458;2023-02-22T04:13:59;101057.53;;;6.73;100.00
41945;BME280;63122;52.424;13.458;2023-02-22T04:15:55;101061.81;;;6.74;100.00
41945;BME280;63122;52.424;13.458;2023-02-22T04:17:50;101057.06;;;6.80;100.00
41945;BME280;63122;52.424;13.458;2023-02-22T04:19:45;101060.88;;;6.87;100.00
41945;BME280;63122;52.424;13.458;2023-02-22T04:21:41;101056.09;;;6.92;100.00
41945;BME280;63122;52.424;13.458;2023-02-22T04:23:36;101059.56;;;6.93;100.00
41945;BME280;63122;52.424;13.458;2023-02-22T04:25:33;101053.38;;;6.94;100.00
41945;BME280;63122;52.424;13.458;2023-02-22T04:27:29;101054.09;;;6.96;100.00
41945;BME280;63122;52.424;13.458;2023-02-22T04:29:24;101053.13;;;6.97;100.00
41945;BME280;63122;52.424;13.458;2023-02-22T04:31:19;101056.47;;;6.99;100.00
41945;BME280;63122;52.424;13.458;2023-02-22T04:33:14;101059.94;;;6.99;100.00
41945;BME280;63122;52.424;13.458;2023-02-22T04:35:10;101054.31;;;7.04;100.00
41945;BME280;63122;52.424;13.458;2023-02-22T04:37:05;101048.97;;;7.05;100.00
41945;BME280;63122;52.424;13.458;2023-02-22T04:39:01;101053.50;;;7.03;100.00
41945;BME280;63122;52.424;13.458;2023-02-22T04:40:59;101057.91;;;7.03;100.00
41945;BME280;63122;52.424;13.458;2023-02-22T04:42:54;101061.47;;;7.02;100.00
41945;BME280;63122;52.424;13.458;2023-02-22T04:44:51;101054.44;;;6.91;100.00
41945;BME280;63122;52.424;13.458;2023-02-22T04:46:46;101063.63;;;6.85;100.00
41945;BME280;63122;52.424;13.458;2023-02-22T04:48:42;101051.91;;;6.78;100.00
41945;BME280;63122;52.424;13.458;2023-02-22T04:50:38;101052.88;;;6.77;100.00
41945;BME280;63122;52.424;13.458;2023-02-22T04:52:33;101052.28;;;6.73;100.00
41945;BME280;63122;52.424;13.458;2023-02-22T04:54:28;101050.38;;;6.75;100.00
41945;BME280;63122;52.424;13.458;2023-02-22T04:56:26;101056.44;;;6.76;100.00
41945;BME280;63122;52.424;13.458;2023-02-22T04:58:21;101052.16;;;6.75;100.00
41945;BME280;63122;52.424;13.458;2023-02-22T05:00:17;101052.63;;;6.69;100.00
41945;BME280;63122;52.424;13.458;2023-02-22T05:02:13;101056.69;;;6.73;100.00
41945;BME280;63122;52.424;13.458;2023-02-22T05:04:08;101049.16;;;6.68;100.00
41945;BME280;63122;52.424;13.458;2023-02-22T05:06:04;101043.69;;;6.71;100.00
41945;BME280;63122;52.424;13.458;2023-02-22T05:08:00;101047.75;;;6.75;100.00
41945;BME280;63122;52.424;13.458;2023-02-22T05:09:55;101045.94;;;6.76;100.00
41945;BME280;63122;52.424;13.458;2023-02-22T05:11:53;101038.81;;;6.78;100.00
41945;BME280;63122;52.424;13.458;2023-02-22T05:13:48;101040.22;;;6.82;100.00
41945;BME280;63122;52.424;13.458;2023-02-22T05:15:43;101046.44;;;6.81;100.00
41945;BME280;63122;52.424;13.458;2023-02-22T05:17:39;101042.75;;;6.84;100.00
41945;BME280;63122;52.424;13.458;2023-02-22T05:19:34;101041.31;;;6.80;100.00
41945;BME280;63122;52.424;13.458;2023-02-22T05:21:29;101045.00;;;6.77;100.00
41945;BME280;63122;52.424;13.458;2023-02-22T05:23:24;101044.75;;;6.80;100.00
41945;BME280;63122;52.424;13.458;2023-02-22T05:25:20;101043.81;;;6.81;100.00
41945;BME280;63122;52.424;13.458;2023-02-22T05:27:18;101044.66;;;6.82;100.00
41945;BME280;63122;52.424;13.458;2023-02-22T05:29:13;101054.19;;;6.83;100.00
41945;BME280;63122;52.424;13.458;2023-02-22T05:31:08;101038.22;;;6.74;100.00
41945;BME280;63122;52.424;13.458;2023-02-22T05:33:04;101032.97;;;6.74;100.00
41945;BME280;63122;52.424;13.458;2023-02-22T05:34:59;101035.47;;;6.76;100.00
41945;BME280;63122;52.424;13.458;2023-02-22T05:36:54;101040.00;;;6.74;100.00
41945;BME280;63122;52.424;13.458;2023-02-22T05:38:50;101036.41;;;6.75;100.00
41945;BME280;63122;52.424;13.458;2023-02-22T05:40:45;101048.72;;;6.74;100.00
41945;BME280;63122;52.424;13.458;2023-02-22T05:42:42;101045.25;;;6.74;100.00
41945;BME280;63122;52.424;13.458;2023-02-22T05:44:39;101047.28;;;6.70;100.00
41945;BME280;63122;52.424;13.458;2023-02-22T05:46:35;101047.28;;;6.70;100.00
41945;BME280;63122;52.424;13.458;2023-02-22T05:48:30;101045.38;;;6.72;100.00
41945;BME280;63122;52.424;13.458;2023-02-22T05:50:25;101048.56;;;6.76;100.00
41945;BME280;63122;52.424;13.458;2023-02-22T05:52:20;101050.63;;;6.72;100.00
41945;BME280;63122;52.424;13.458;2023-02-22T05:54:16;101050.63;;;6.72;100.00
41945;BME280;63122;52.424;13.458;2023-02-22T05:56:11;101054.19;;;6.71;100.00
41945;BME280;63122;52.424;13.458;2023-02-22T05:58:09;101054.06;;;6.73;100.00
41945;BME280;63122;52.424;13.458;2023-02-22T06:00:05;101046.19;;;6.73;100.00
41945;BME280;63122;52.424;13.458;2023-02-22T06:02:01;101061.09;;;6.72;100.00
41945;BME280;63122;52.424;13.458;2023-02-22T06:03:56;101053.25;;;6.72;100.00
41945;BME280;63122;52.424;13.458;2023-02-22T06:05:51;101055.84;;;6.72;100.00
41945;BME280;63122;52.424;13.458;2023-02-22T06:07:46;101049.66;;;6.73;100.00
41945;BME280;63122;52.424;13.458;2023-02-22T06:09:41;101055.63;;;6.75;100.00
41945;BME280;63122;52.424;13.458;2023-02-22T06:11:37;101052.06;;;6.76;100.00
41945;BME280;63122;52.424;13.458;2023-02-22T06:13:34;101047.63;;;6.77;100.00
41945;BME280;63122;52.424;13.458;2023-02-22T06:15:30;101055.50;;;6.77;100.00
41945;BME280;63122;52.424;13.458;2023-02-22T06:17:25;101059.69;;;6.80;100.00
41945;BME280;63122;52.424;13.458;2023-02-22T06:19:22;101059.19;;;6.86;100.00
41945;BME280;63122;52.424;13.458;2023-02-22T06:21:17;101069.81;;;6.84;100.00
41945;BME280;63122;52.424;13.458;2023-02-22T06:23:13;101065.63;;;6.82;100.00
41945;BME280;63122;52.424;13.458;2023-02-22T06:25:09;101068.25;;;6.82;100.00
41945;BME280;63122;52.424;13.458;2023-02-22T06:27:07;101061.97;;;6.84;100.00
41945;BME280;63122;52.424;13.458;2023-02-22T06:29:05;101070.53;;;6.86;100.00
41945;BME280;63122;52.424;13.458;2023-02-22T06:31:00;101068.41;;;6.91;100.00
41945;BME280;63122;52.424;13.458;2023-02-22T06:32:56;101068.16;;;6.95;100.00
41945;BME280;63122;52.424;13.458;2023-02-22T06:34:51;101068.78;;;6.98;100.00
41945;BME280;63122;52.424;13.458;2023-02-22T06:36:47;101079.84;;;7.02;100.00
41945;BME280;63122;52.424;13.458;2023-02-22T06:38:42;101075.06;;;7.07;100.00
41945;BME280;63122;52.424;13.458;2023-02-22T06:40:37;101074.63;;;7.13;100.00
41945;BME280;63122;52.424;13.458;2023-02-22T06:42:33;101083.06;;;7.17;100.00
41945;BME280;63122;52.424;13.458;2023-02-22T06:44:30;101082.50;;;7.13;100.00
41945;BME280;63122;52.424;13.458;2023-02-22T06:46:26;101081.16;;;7.19;100.00
41945;BME280;63122;52.424;13.458;2023-02-22T06:48:21;101080.19;;;7.20;100.00
41945;BME280;63122;52.424;13.458;2023-02-22T06:50:21;101079.38;;;7.19;100.00
41945;BME280;63122;52.424;13.458;2023-02-22T06:52:17;101078.44;;;7.20;100.00
41945;BME280;63122;52.424;13.458;2023-02-22T06:54:13;101085.22;;;7.23;100.00
41945;BME280;63122;52.424;13.458;2023-02-22T06:56:08;101084.16;;;7.26;100.00
41945;BME280;63122;52.424;13.458;2023-02-22T06:58:04;101087.97;;;7.22;100.00
41945;BME280;63122;52.424;13.458;2023-02-22T07:00:03;101091.16;;;7.25;100.00
41945;BME280;63122;52.424;13.458;2023-02-22T07:01:58;101090.97;;;7.28;100.00
41945;BME280;63122;52.424;13.458;2023-02-22T07:03:55;101085.31;;;7.33;100.00
41945;BME280;63122;52.424;13.458;2023-02-22T07:05:51;101091.28;;;7.35;100.00
41945;BME280;63122;52.424;13.458;2023-02-22T07:07:47;101094.53;;;7.39;100.00
41945;BME280;63122;52.424;13.458;2023-02-22T07:09:45;101089.97;;;7.41;100.00
41945;BME280;63122;52.424;13.458;2023-02-22T07:11:40;101094.41;;;7.40;100.00
41945;BME280;63122;52.424;13.458;2023-02-22T07:13:36;101094.16;;;7.43;100.00
41945;BME280;63122;52.424;13.458;2023-02-22T07:15:34;101096.78;;;7.43;100.00
41945;BME280;63122;52.424;13.458;2023-02-22T07:17:30;101102.16;;;7.42;100.00
41945;BME280;63122;52.424;13.458;2023-02-22T07:19:25;101097.16;;;7.39;100.00
41945;BME280;63122;52.424;13.458;2023-02-22T07:21:20;101098.22;;;7.36;100.00
41945;BME280;63122;52.424;13.458;2023-02-22T07:23:16;101098.09;;;7.38;100.00
41945;BME280;63122;52.424;13.458;2023-02-22T07:25:12;101105.84;;;7.39;100.00
41945;BME280;63122;52.424;13.458;2023-02-22T07:27:07;101097.38;;;7.35;100.00
41945;BME280;63122;52.424;13.458;2023-02-22T07:29:02;101095.59;;;7.36;100.00
41945;BME280;63122;52.424;13.458;2023-02-22T07:31:00;101092.84;;;7.38;100.00
41945;BME280;63122;52.424;13.458;2023-02-22T07:32:57;101091.19;;;7.37;100.00
41945;BME280;63122;52.424;13.458;2023-02-22T07:34:52;101102.41;;;7.39;100.00
41945;BME280;63122;52.424;13.458;2023-02-22T07:36:48;101100.38;;;7.42;100.00
41945;BME280;63122;52.424;13.458;2023-02-22T07:38:43;101094.53;;;7.39;100.00
41945;BME280;63122;52.424;13.458;2023-02-22T07:40:40;101097.38;;;7.35;100.00
41945;BME280;63122;52.424;13.458;2023-02-22T07:42:49;101093.09;;;7.34;100.00
41945;BME280;63122;52.424;13.458;2023-02-22T07:44:45;101091.53;;;7.32;100.00
41945;BME280;63122;52.424;13.458;2023-02-22T07:46:45;101101.34;;;7.41;100.00
41945;BME280;63122;52.424;13.458;2023-02-22T07:48:41;101098.22;;;7.36;100.00
41945;BME280;63122;52.424;13.458;2023-02-22T07:50:37;101097.97;;;7.39;100.00
41945;BME280;63122;52.424;13.458;2023-02-22T07:52:32;101096.09;;;7.41;100.00
41945;BME280;63122;52.424;13.458;2023-02-22T07:54:28;101096.91;;;7.42;100.00
41945;BME280;63122;52.424;13.458;2023-02-22T07:56:23;101101.34;;;7.41;100.00
41945;BME280;63122;52.424;13.458;2023-02-22T07:58:20;101095.13;;;7.42;100.00
41945;BME280;63122;52.424;13.458;2023-02-22T08:00:21;101098.81;;;7.40;100.00
41945;BME280;63122;52.424;13.458;2023-02-22T08:02:24;101092.25;;;7.34;100.00
41945;BME280;63122;52.424;13.458;2023-02-22T08:04:21;101107.19;;;7.33;100.00
41945;BME280;63122;52.424;13.458;2023-02-22T08:06:16;101105.84;;;7.39;100.00
41945;BME280;63122;52.424;13.458;2023-02-22T08:08:12;101103.97;;;7.41;100.00
41945;BME280;63122;52.424;13.458;2023-02-22T08:10:13;101103.00;;;7.42;100.00
41945;BME280;63122;52.424;13.458;2023-02-22T08:12:08;101105.50;;;7.44;100.00
41945;BME280;63122;52.424;13.458;2023-02-22T08:14:04;101098.56;;;7.43;100.00
41945;BME280;63122;52.424;13.458;2023-02-22T08:15:59;101099.88;;;7.48;100.00
41945;BME280;63122;52.424;13.458;2023-02-22T08:17:58;101106.47;;;7.54;100.00
41945;BME280;63122;52.424;13.458;2023-02-22T08:19:54;101107.16;;;7.56;100.00
41945;BME280;63122;52.424;13.458;2023-02-22T08:21:49;101099.28;;;7.56;100.00
41945;BME280;63122;52.424;13.458;2023-02-22T08:23:44;101106.06;;;7.59;100.00
41945;BME280;63122;52.424;13.458;2023-02-22T08:25:39;101111.22;;;7.60;100.00
41945;BME280;63122;52.424;13.458;2023-02-22T08:27:35;101101.78;;;7.58;100.00
41945;BME280;63122;52.424;13.458;2023-02-22T08:29:31;101102.75;;;7.57;100.00
41945;BME280;63122;52.424;13.458;2023-02-22T08:31:26;101097.03;;;7.52;100.00
41945;BME280;63122;52.424;13.458;2023-02-22T08:33:24;101109.44;;;7.49;100.00
41945;BME280;63122;52.424;13.458;2023-02-22T08:35:21;101101.66;;;7.48;100.00
41945;BME280;63122;52.424;13.458;2023-02-22T08:37:17;101100.59;;;7.39;100.00
41945;BME280;63122;52.424;13.458;2023-02-22T08:39:12;101107.06;;;7.24;100.00
41945;BME280;63122;52.424;13.458;2023-02-22T08:41:07;101113.13;;;7.24;100.00
41945;BME280;63122;52.424;13.458;2023-02-22T08:43:02;101103.84;;;7.31;100.00
41945;BME280;63122;52.424;13.458;2023-02-22T08:44:58;101098.81;;;7.40;100.00
41945;BME280;63122;52.424;13.458;2023-02-22T08:46:53;101098.47;;;7.44;100.00
41945;BME280;63122;52.424;13.458;2023-02-22T08:48:52;101096.56;;;7.46;100.00
41945;BME280;63122;52.424;13.458;2023-02-22T08:50:47;101098.31;;;7.46;100.00
41945;BME280;63122;52.424;13.458;2023-02-22T08:52:43;101097.63;;;7.44;100.00
41945;BME280;63122;52.424;13.458;2023-02-22T08:54:38;101094.75;;;7.35;100.00
41945;BME280;63122;52.424;13.458;2023-02-22T08:56:33;101106.22;;;7.34;100.00
41945;BME280;63122;52.424;13.458;2023-02-22T08:58:28;101092.00;;;7.37;100.00
41945;BME280;63122;52.424;13.458;2023-02-22T09:00:24;101099.78;;;7.39;100.00
41945;BME280;63122;52.424;13.458;2023-02-22T09:02:21;101099.53;;;7.42;100.00
41945;BME280;63122;52.424;13.458;2023-02-22T09:04:18;101098.81;;;7.40;100.00
41945;BME280;63122;52.424;13.458;2023-02-22T09:06:14;101095.13;;;7.42;100.00
41945;BME280;63122;52.424;13.458;2023-02-22T09:08:09;101100.59;;;7.39;100.00
41945;BME280;63122;52.424;13.458;2023-02-22T09:10:05;101105.97;;;7.38;100.00
41945;BME280;63122;52.424;13.458;2023-02-22T09:12:01;101102.50;;;7.37;100.00
41945;BME280;63122;52.424;13.458;2023-02-22T09:13:57;101097.38;;;7.24;100.00
41945;BME280;63122;52.424;13.458;2023-02-22T09:15:52;101095.72;;;7.34;100.00
41945;BME280;63122;52.424;13.458;2023-02-22T09:17:48;101101.19;;;7.43;100.00
41945;BME280;63122;52.424;13.458;2023-02-22T09:19:45;101096.78;;;7.43;100.00
41945;BME280;63122;52.424;13.458;2023-02-22T09:21:41;101107.19;;;7.33;100.00
41945;BME280;63122;52.424;13.458;2023-02-22T09:23:36;101101.34;;;7.41;100.00
41945;BME280;63122;52.424;13.458;2023-02-22T09:25:32;101102.63;;;7.35;100.00
41945;BME280;63122;52.424;13.458;2023-02-22T09:27:29;101100.00;;;7.47;100.00
41945;BME280;63122;52.424;13.458;2023-02-22T09:29:26;101102.28;;;7.52;100.00
41945;BME280;63122;52.424;13.458;2023-02-22T09:31:21;101100.25;;;7.55;100.00
41945;BME280;63122;52.424;13.458;2023-02-22T09:33:18;101106.94;;;7.59;100.00
41945;BME280;63122;52.424;13.458;2023-02-22T09:35:16;101098.09;;;7.60;100.00
41945;BME280;63122;52.424;13.458;2023-02-22T09:37:11;101095.47;;;7.60;100.00
41945;BME280;63122;52.424;13.458;2023-02-22T09:39:06;101102.59;;;7.70;100.00
41945;BME280;63122;52.424;13.458;2023-02-22T09:41:12;101093.03;;;7.80;100.00
41945;BME280;63122;52.424;13.458;2023-02-22T09:43:17;101094.13;;;7.77;100.00
41945;BME280;63122;52.424;13.458;2023-02-22T09:45:19;101094.94;;;7.89;100.00
41945;BME280;63122;52.424;13.458;2023-02-22T09:47:18;101088.91;;;7.99;100.00
41945;BME280;63122;52.424;13.458;2023-02-22T09:49:28;101087.69;;;8.14;100.00
41945;BME280;63122;52.424;13.458;2023-02-22T09:51:33;101094.44;;;8.28;100.00
41945;BME280;63122;52.424;13.458;2023-02-22T09:53:34;101092.47;;;8.42;100.00
41945;BME280;63122;52.424;13.458;2023-02-22T09:55:36;101091.25;;;8.46;100.00
41945;BME280;63122;52.424;13.458;2023-02-22T09:57:34;101089.38;;;8.36;100.00
41945;BME280;63122;52.424;13.458;2023-02-22T09:59:36;101087.00;;;8.33;100.00
41945;BME280;63122;52.424;13.458;2023-02-22T10:01:38;101088.69;;;8.34;100.00
41945;BME280;63122;52.424;13.458;2023-02-22T10:03:40;101088.16;;;8.41;100.00
41945;BME280;63122;52.424;13.458;2023-02-22T10:05:43;101084.38;;;8.33;100.00
41945;BME280;63122;52.424;13.458;2023-02-22T10:07:47;101085.44;;;8.31;100.00
41945;BME280;63122;52.424;13.458;2023-02-22T10:09:46;101084.25;;;8.35;100.00
41945;BME280;63122;52.424;13.458;2023-02-22T10:11:49;101079.13;;;8.33;100.00